Latest Weather Observations for West Wyalong

IDN60801

Issued at 2:35 pm EST Wednesday 30 July 2014 (issued every 30 minutes, with the page automatically refreshed every 10 minutes)

About weather observations | Map of weather stations | Latest weather observations for NSW | Other Formats
Station Details ID: 050017 Name: WEST WYALONG AIRPORT AWS Lat: -33.94 Lon: 147.20 Height: 257.0 m
Data from the previous 72 hours. | See also: Recent months for locations in New South Wales
Date/Time
EST
Temp
°C
App
Temp
°C
Dew
Point
Rel
Hum
%
Delta-T
°C
Wind Press
QNH
hPa
Press
MSL
hPa
Rain
since 9 am
mm
Dir
 
Spd
km/h
Gust
km/h
Spd
kts
Gust
kts
30/02:30pm 18.9 15.5 9.1 53 5.2 WNW 17 26 9 14 1018.1 - 0.0
30/02:00pm 17.5 12.9 8.1 54 4.8 WNW 22 33 12 18 1018.3 - 0.0
30/01:30pm 17.7 12.7 8.0 53 5.0 WNW 24 35 13 19 1018.6 - 0.0
30/01:00pm 18.7 14.8 8.7 52 5.3 W 19 28 10 15 1019.0 - 0.0
30/12:30pm 17.7 13.1 8.3 54 4.9 W 22 30 12 16 1019.4 - 0.0
30/12:00pm 17.8 12.9 8.6 55 4.8 W 24 35 13 19 1020.1 1020.6 0.0
30/11:30am 16.7 12.2 8.7 59 4.2 W 22 32 12 17 1020.5 - 0.0
30/11:00am 16.9 12.2 9.3 61 4.0 W 24 33 13 18 1020.8 - 0.0
30/10:30am 16.6 12.7 8.8 60 4.0 WNW 19 30 10 16 1020.8 - 0.0
30/10:00am 15.5 11.3 8.3 62 3.7 W 20 28 11 15 1020.9 - 0.0
30/09:30am 14.8 11.0 7.6 62 3.6 W 17 24 9 13 1020.8 - 0.0
30/09:00am 12.6 10.3 7.3 70 2.6 NW 9 13 5 7 1020.6 1021.1 0.0
30/08:30am 11.1 7.8 6.5 73 2.2 NNW 13 17 7 9 1020.4 - 0.0
30/08:00am 10.0 7.4 6.0 76 1.9 NNW 9 13 5 7 1020.3 - 0.0
30/07:30am 10.2 7.1 5.4 72 2.2 NNW 11 13 6 7 1020.2 - 0.0
30/07:00am 10.6 7.0 5.2 69 2.5 NW 13 17 7 9 1020.0 - 0.0
30/06:30am 10.8 6.8 4.9 67 2.7 NW 15 22 8 12 1019.7 - 0.0
30/06:00am 10.9 6.9 5.0 67 2.7 WNW 15 19 8 10 1019.4 1019.8 0.0
30/05:30am 10.5 6.5 5.1 69 2.5 NW 15 19 8 10 1019.1 - 0.0
30/05:00am 9.0 5.7 4.4 73 2.1 NW 11 15 6 8 1018.9 - 0.0
30/04:30am 9.2 6.4 5.0 75 1.9 NNW 9 15 5 8 1018.9 - 0.0
30/04:00am 7.0 5.2 3.6 79 1.5 WNW 2 6 1 3 1018.8 - 0.0
30/03:30am 8.3 5.3 4.1 75 1.9 WNW 9 11 5 6 1018.8 - 0.0
30/03:00am 8.7 5.8 4.5 75 1.9 NW 9 13 5 7 1018.8 1019.2 0.0
30/02:30am 9.2 6.9 4.6 73 2.1 NW 6 9 3 5 1018.9 - 0.0
30/02:00am 10.1 7.7 5.3 72 2.2 WNW 7 9 4 5 1019.0 - 0.0
30/01:30am 10.1 7.2 4.5 68 2.5 W 9 11 5 6 1018.9 - 0.0
30/01:00am 10.4 7.1 4.8 68 2.6 W 11 13 6 7 1019.0 - 0.0
30/12:30am 8.8 5.3 3.6 70 2.3 W 11 15 6 8 1018.8 - 0.0
30/12:00am 9.1 5.6 3.3 67 2.5 W 11 13 6 7 1018.9 1019.3 0.0
 
Date/Time
EST
Temp
°C
App
Temp
°C
Dew
Point
Rel
Hum
%
Delta-T
°C
Wind Press
QNH
hPa
Press
MSL
hPa
Rain
since 9 am
mm
Dir
 
Spd
km/h
Gust
km/h
Spd
kts
Gust
kts
29/11:30pm 11.4 7.5 3.4 58 3.6 WNW 13 15 7 8 1018.9 - 0.0
29/11:00pm 11.4 7.5 3.4 58 3.6 W 13 17 7 9 1019.1 - 0.0
29/10:30pm 12.9 8.2 3.3 52 4.3 WSW 17 22 9 12 1019.2 - 0.0
29/10:00pm 12.6 7.6 3.5 54 4.1 WSW 19 22 10 12 1019.1 - 0.0
29/09:30pm 12.6 8.3 3.3 53 4.2 WNW 15 17 8 9 1018.8 - 0.0
29/09:00pm 12.9 9.0 3.6 53 4.2 NW 13 19 7 10 1018.4 1018.8 0.0
29/08:30pm 13.5 9.3 3.8 52 4.5 WNW 15 19 8 10 1018.4 - 0.0
29/08:00pm 13.0 9.6 4.2 55 4.1 NW 11 15 6 8 1018.1 - 0.0
29/07:30pm 12.6 9.3 4.8 59 3.6 NW 11 15 6 8 1017.9 - 0.0
29/07:00pm 12.3 9.0 4.8 60 3.5 NW 11 13 6 7 1017.7 - 0.0
29/06:30pm 13.0 10.5 4.9 58 3.8 NW 7 9 4 5 1017.5 - 0.0
29/06:00pm 14.4 11.6 5.2 54 4.4 NNW 9 11 5 6 1017.3 1017.7 0.0
29/05:30pm 15.8 12.5 4.8 48 5.3 NNW 11 15 6 8 1017.1 - 0.0
29/05:00pm 17.9 13.4 4.1 40 6.6 WNW 17 24 9 13 1017.1 - 0.0
29/04:30pm 18.7 13.5 3.7 37 7.2 WNW 20 30 11 16 1016.9 - 0.0
29/04:00pm 19.0 12.8 4.4 38 7.1 WNW 26 39 14 21 1017.0 - 0.0
29/03:30pm 19.1 13.9 3.7 36 7.4 WNW 20 28 11 15 1017.0 - 0.0
29/03:00pm 19.1 13.5 3.7 36 7.4 WNW 22 30 12 16 1017.1 1017.6 0.0
29/02:30pm 18.9 13.3 3.5 36 7.3 NW 22 32 12 17 1017.0 - 0.0
29/02:00pm 19.1 14.2 4.1 37 7.2 NW 19 28 10 15 1017.0 - 0.0
29/01:30pm 18.8 13.8 3.8 37 7.2 WNW 19 28 10 15 1017.3 - 0.0
29/01:00pm 18.2 13.6 3.7 38 6.9 NW 17 26 9 14 1017.8 - 0.0
29/12:30pm 17.7 12.7 3.6 39 6.7 NW 19 26 10 14 1018.6 - 0.0
29/12:00pm 16.6 11.7 2.2 38 6.5 WNW 17 22 9 12 1019.3 1019.7 0.0
29/11:30am 16.4 11.3 3.1 41 6.2 WNW 19 24 10 13 1019.8 - 0.0
29/11:00am 15.8 10.6 2.6 41 6.0 W 19 26 10 14 1020.1 - 0.0
29/10:30am 15.4 10.1 1.9 40 6.0 W 19 24 10 13 1020.1 - 0.0
29/10:00am 13.7 9.8 3.2 49 4.8 NNW 13 17 7 9 1019.7 - 0.0
29/09:30am 11.8 8.2 3.1 55 3.9 NNW 11 15 6 8 1019.2 - 0.0
29/09:00am 11.7 8.1 2.7 54 4.0 NW 11 17 6 9 1019.4 1019.8 0.0
29/08:30am 9.5 5.4 2.4 61 3.0 NNW 13 17 7 9 1019.3 - 0.0
29/08:00am 8.2 3.3 2.0 65 2.6 NNW 17 20 9 11 1019.2 - 0.0
29/07:30am 7.8 3.2 1.6 65 2.6 NNW 15 19 8 10 1019.1 - 0.0
29/07:00am 7.2 2.3 1.7 68 2.3 NNW 17 20 9 11 1018.7 - 0.0
29/06:30am 7.3 2.4 1.8 68 2.3 NNW 17 22 9 12 1018.6 - 0.0
29/06:00am 7.5 2.9 1.8 67 2.4 NNW 15 19 8 10 1018.5 1018.9 0.0
29/05:30am 7.3 2.4 2.2 70 2.1 NNW 17 20 9 11 1018.3 - 0.0
29/05:00am 7.5 2.6 2.2 69 2.2 NNW 17 20 9 11 1018.3 - 0.0
29/04:30am 7.6 2.7 2.3 69 2.2 NNW 17 20 9 11 1018.2 - 0.0
29/04:00am 7.5 2.7 2.6 71 2.1 NNW 17 20 9 11 1018.3 - 0.0
29/03:30am 7.9 3.1 2.6 69 2.3 NNW 17 20 9 11 1018.3 - 0.0
29/03:00am 8.4 3.6 2.6 67 2.5 NNW 17 22 9 12 1018.4 1018.8 0.0
29/02:30am 8.8 4.0 2.8 66 2.6 NNW 17 24 9 13 1018.4 - 0.0
29/02:00am 8.7 4.0 2.9 67 2.5 NNW 17 20 9 11 1018.5 - 0.0
29/01:30am 8.7 4.0 3.1 68 2.4 NNW 17 20 9 11 1018.6 - 0.0
29/01:00am 8.8 4.1 3.0 67 2.5 NNW 17 20 9 11 1018.6 - 0.0
29/12:30am 9.1 4.8 3.1 66 2.6 NNW 15 20 8 11 1018.8 - 0.0
29/12:00am 9.3 5.4 3.3 66 2.6 NNW 13 17 7 9 1019.2 1019.6 0.0
 
Date/Time
EST
Temp
°C
App
Temp
°C
Dew
Point
Rel
Hum
%
Delta-T
°C
Wind Press
QNH
hPa
Press
MSL
hPa
Rain
since 9 am
mm
Dir
 
Spd
km/h
Gust
km/h
Spd
kts
Gust
kts
28/11:30pm 9.9 6.0 3.4 64 2.9 N 13 19 7 10 1019.5 - 0.0
28/11:00pm 10.0 6.1 3.5 64 2.9 NNW 13 17 7 9 1019.6 - 0.0
28/10:30pm 10.5 6.2 3.5 62 3.1 NNW 15 19 8 10 1019.6 - 0.0
28/10:00pm 10.9 7.1 3.7 61 3.2 NNW 13 19 7 10 1019.7 - 0.0
28/09:30pm 11.1 7.7 4.1 62 3.2 N 11 15 6 8 1019.7 - 0.0
28/09:00pm 11.5 7.7 4.0 60 3.4 N 13 15 7 8 1019.8 1020.3 0.0
28/08:30pm 11.4 8.1 4.4 62 3.2 N 11 15 6 8 1019.6 - 0.0
28/08:00pm 11.2 7.5 4.4 63 3.1 N 13 15 7 8 1019.7 - 0.0
28/07:30pm 11.1 7.8 4.8 65 2.9 N 11 13 6 7 1019.7 - 0.0
28/07:00pm 10.7 8.2 5.0 68 2.6 N 7 9 4 5 1019.7 - 0.0
28/06:30pm 11.9 9.1 5.3 64 3.1 N 9 9 5 5 1019.6 - 0.0
28/06:00pm 12.4 10.0 5.3 62 3.3 N 7 9 4 5 1019.5 1019.9 0.0
28/05:30pm 13.3 10.8 5.0 57 3.9 N 7 9 4 5 1019.5 - 0.0
28/05:00pm 14.6 12.1 4.9 52 4.6 N 7 9 4 5 1019.4 - 0.0
28/04:30pm 15.8 12.7 3.6 44 5.7 NW 9 13 5 7 1019.3 - 0.0
28/04:00pm 16.4 12.9 3.5 42 6.0 NW 11 15 6 8 1019.3 - 0.0
28/03:30pm 16.5 12.1 2.5 39 6.4 NW 15 20 8 11 1019.6 - 0.0
28/03:00pm 17.8 12.6 2.5 36 7.1 NW 19 28 10 15 1019.5 1019.9 0.0
28/02:30pm 17.7 11.8 1.7 34 7.3 WNW 22 32 12 17 1019.6 - 0.0
28/02:00pm 17.5 12.1 2.3 36 7.0 WNW 20 33 11 18 1019.8 - 0.0
28/01:30pm 17.5 12.3 3.8 40 6.5 WNW 20 30 11 16 1020.1 - 0.0
28/01:00pm 17.1 11.8 3.1 39 6.5 NW 20 26 11 14 1020.6 - 0.0
28/12:30pm 16.9 12.2 5.2 46 5.7 NW 19 26 10 14 1020.9 - 0.0
28/12:00pm 16.7 12.7 5.0 46 5.6 NW 15 24 8 13 1021.6 1022.0 0.0
28/11:30am 15.6 12.4 6.9 56 4.3 NNW 13 19 7 10 1022.0 - 0.0
28/11:00am 14.4 11.7 7.5 63 3.4 NNW 11 17 6 9 1022.6 - 0.0
28/10:30am 12.7 9.6 7.4 70 2.6 N 13 17 7 9 1022.9 - 0.0
28/10:00am 11.3 7.4 7.0 75 2.1 NNW 17 22 9 12 1023.0 - 0.0
28/09:30am 10.1 6.2 7.2 82 1.4 NNW 17 24 9 13 1022.8 - 0.0
28/09:00am 8.6 5.1 7.1 90 0.7 N 15 20 8 11 1022.9 1023.4 0.0
28/08:30am 6.6 3.7 6.6 100 0.0 N 11 15 6 8 1022.8 - 0.0
28/08:00am 5.9 3.3 5.9 100 0.0 N 9 13 5 7 1022.5 - 0.0
28/07:30am 4.0 1.4 4.0 100 0.0 N 7 9 4 5 1022.9 - 0.0
28/07:00am 3.4 0.6 3.4 100 0.0 N 7 9 4 5 1022.8 - 0.0
28/06:30am 3.1 0.3 3.1 100 0.0 N 7 9 4 5 1022.6 - 0.0
28/06:00am 3.1 -0.1 3.0 99 0.0 N 9 9 5 5 1022.6 1023.0 0.0
28/05:30am 2.0 0.3 1.9 99 0.0 CALM 0 0 0 0 1022.7 - 0.0
28/05:00am 2.2 0.5 2.1 99 0.0 CALM 0 0 0 0 1022.9 - 0.0
28/04:30am 1.7 0.0 1.6 99 0.0 CALM 0 0 0 0 1022.9 - 0.0
28/04:00am 2.1 0.4 2.0 99 0.0 CALM 0 0 0 0 1022.9 - 0.0
28/03:30am 2.4 0.8 2.3 99 0.0 CALM 0 0 0 0 1022.6 - 0.0
28/03:00am 2.7 1.1 2.6 99 0.0 CALM 0 0 0 0 1022.9 1023.4 0.0
28/02:30am 3.4 2.0 3.3 99 0.0 CALM 0 0 0 0 1023.2 - 0.0
28/02:00am 3.5 2.1 3.4 99 0.0 CALM 0 0 0 0 1023.2 - 0.0
28/01:30am 4.0 2.7 3.9 99 0.0 CALM 0 0 0 0 1023.4 - 0.0
28/01:00am 4.0 2.7 3.9 99 0.0 CALM 0 0 0 0 1023.5 - 0.0
28/12:30am 4.2 2.9 4.1 99 0.0 CALM 0 0 0 0 1024.0 - 0.0
28/12:00am 4.4 3.1 4.3 99 0.0 CALM 0 0 0 0 1024.1 1024.6 0.0
 
Date/Time
EST
Temp
°C
App
Temp
°C
Dew
Point
Rel
Hum
%
Delta-T
°C
Wind Press
QNH
hPa
Press
MSL
hPa
Rain
since 9 am
mm
Dir
 
Spd
km/h
Gust
km/h
Spd
kts
Gust
kts
27/11:30pm 4.3 3.0 4.2 99 0.0 CALM 0 0 0 0 1023.9 - 0.0
27/11:00pm 3.3 1.8 3.2 99 0.0 CALM 0 0 0 0 1024.5 - 0.0
27/10:30pm 3.3 0.7 3.2 99 0.0 WSW 6 7 3 4 1025.0 - 0.0
27/10:00pm 3.5 2.1 3.4 99 0.0 CALM 0 0 0 0 1024.7 - 0.0
27/09:30pm 4.0 2.7 3.9 99 0.0 CALM 0 0 0 0 1025.0 - 0.0
27/09:00pm 3.8 1.6 3.5 98 0.1 W 4 7 2 4 1025.2 1025.7 0.0
27/08:30pm 4.6 3.3 4.3 98 0.1 CALM 0 0 0 0 1025.1 - 0.0
27/08:00pm 4.6 3.2 3.7 94 0.4 CALM 0 0 0 0 1024.7 - 0.0
27/07:30pm 5.2 3.7 3.1 86 0.9 CALM 0 0 0 0 1024.7 - 0.0
27/07:00pm 7.4 5.0 4.5 82 1.3 N 6 7 3 4 1024.4 - 0.0
27/06:30pm 8.7 6.4 5.8 82 1.3 NE 7 7 4 4 1024.4 - 0.0
27/06:00pm 9.0 6.7 5.0 76 1.8 ENE 6 7 3 4 1024.5 1025.0 0.0
27/05:30pm 11.6 10.2 5.5 66 2.9 S 2 6 1 3 1024.6 - 0.0
27/05:00pm 13.3 11.0 5.9 61 3.5 WSW 7 11 4 6 1024.9 - 0.0
27/04:30pm 13.0 9.5 5.4 60 3.6 SW 13 17 7 9 1024.9 - 0.0
27/04:00pm 13.6 10.1 5.5 58 3.9 SW 13 19 7 10 1024.8 - 0.0
27/03:30pm 14.4 10.6 6.0 57 4.1 WSW 15 20 8 11 1024.9 - 0.0
27/03:00pm 13.4 9.8 4.8 56 4.0 SW 13 20 7 11 1024.9 1025.4 0.0

Other Formats:

Comma delimited format used in spreadsheet applications
http://www.bom.gov.au/fwo/IDN60801/IDN60801.95709.axf

JavaScript Object Notation format (JSON) in row-major order
http://www.bom.gov.au/fwo/IDN60801/IDN60801.95709.json